sensor_id;sensor_type;location;lat;lon;timestamp;temperature;humidity
11387;DHT22;5748;53.102;8.456;2023-05-07T00:00:03;15.60;56.80
11387;DHT22;5748;53.102;8.456;2023-05-07T00:02:39;15.50;57.00
11387;DHT22;5748;53.102;8.456;2023-05-07T00:05:07;15.50;57.60
11387;DHT22;5748;53.102;8.456;2023-05-07T00:07:35;15.40;57.20
11387;DHT22;5748;53.102;8.456;2023-05-07T00:10:03;15.40;56.90
11387;DHT22;5748;53.102;8.456;2023-05-07T00:12:51;15.30;56.90
11387;DHT22;5748;53.102;8.456;2023-05-07T00:15:19;15.30;57.80
11387;DHT22;5748;53.102;8.456;2023-05-07T00:17:46;15.30;57.60
11387;DHT22;5748;53.102;8.456;2023-05-07T00:20:13;15.20;57.40
11387;DHT22;5748;53.102;8.456;2023-05-07T00:22:41;15.20;57.10
11387;DHT22;5748;53.102;8.456;2023-05-07T00:25:19;15.10;56.80
11387;DHT22;5748;53.102;8.456;2023-05-07T00:27:46;15.10;57.80
11387;DHT22;5748;53.102;8.456;2023-05-07T00:30:13;15.10;57.20
11387;DHT22;5748;53.102;8.456;2023-05-07T00:32:40;15.10;57.30
11387;DHT22;5748;53.102;8.456;2023-05-07T00:35:08;15.00;57.60
11387;DHT22;5748;53.102;8.456;2023-05-07T00:37:35;15.00;57.80
11387;DHT22;5748;53.102;8.456;2023-05-07T00:40:05;14.90;57.60
11387;DHT22;5748;53.102;8.456;2023-05-07T00:42:34;14.90;57.60
11387;DHT22;5748;53.102;8.456;2023-05-07T00:45:02;14.80;57.40
11387;DHT22;5748;53.102;8.456;2023-05-07T00:47:30;14.90;57.20
11387;DHT22;5748;53.102;8.456;2023-05-07T00:49:57;14.90;57.40
11387;DHT22;5748;53.102;8.456;2023-05-07T00:52:26;14.90;57.30
11387;DHT22;5748;53.102;8.456;2023-05-07T00:54:53;14.80;57.60
11387;DHT22;5748;53.102;8.456;2023-05-07T00:57:40;14.90;57.80
11387;DHT22;5748;53.102;8.456;2023-05-07T01:00:09;14.80;57.80
11387;DHT22;5748;53.102;8.456;2023-05-07T01:02:38;14.80;57.10
11387;DHT22;5748;53.102;8.456;2023-05-07T01:05:06;14.80;57.50
11387;DHT22;5748;53.102;8.456;2023-05-07T01:07:35;14.80;57.50
11387;DHT22;5748;53.102;8.456;2023-05-07T01:10:12;15.30;58.30
11387;DHT22;5748;53.102;8.456;2023-05-07T01:12:42;14.70;58.50
11387;DHT22;5748;53.102;8.456;2023-05-07T01:15:10;14.70;57.90
11387;DHT22;5748;53.102;8.456;2023-05-07T01:17:39;14.70;57.50
11387;DHT22;5748;53.102;8.456;2023-05-07T01:20:08;14.70;57.40
11387;DHT22;5748;53.102;8.456;2023-05-07T01:22:38;14.70;58.00
11387;DHT22;5748;53.102;8.456;2023-05-07T01:25:07;14.60;57.80
11387;DHT22;5748;53.102;8.456;2023-05-07T01:28:08;14.60;57.80
11387;DHT22;5748;53.102;8.456;2023-05-07T01:30:36;14.60;58.30
11387;DHT22;5748;53.102;8.456;2023-05-07T01:33:08;14.60;58.10
11387;DHT22;5748;53.102;8.456;2023-05-07T01:35:40;14.70;57.70
11387;DHT22;5748;53.102;8.456;2023-05-07T01:38:10;14.70;58.20
11387;DHT22;5748;53.102;8.456;2023-05-07T01:40:38;14.60;57.70
11387;DHT22;5748;53.102;8.456;2023-05-07T01:43:05;14.50;57.90
11387;DHT22;5748;53.102;8.456;2023-05-07T01:45:34;14.60;57.90
11387;DHT22;5748;53.102;8.456;2023-05-07T01:48:06;14.50;58.10
11387;DHT22;5748;53.102;8.456;2023-05-07T01:50:34;14.50;58.40
11387;DHT22;5748;53.102;8.456;2023-05-07T01:53:02;14.40;58.20
11387;DHT22;5748;53.102;8.456;2023-05-07T01:55:38;14.40;58.30
11387;DHT22;5748;53.102;8.456;2023-05-07T01:58:05;14.40;58.40
11387;DHT22;5748;53.102;8.456;2023-05-07T02:00:32;14.40;58.80
11387;DHT22;5748;53.102;8.456;2023-05-07T02:02:59;14.30;58.10
11387;DHT22;5748;53.102;8.456;2023-05-07T02:05:26;14.40;58.60
11387;DHT22;5748;53.102;8.456;2023-05-07T02:07:53;14.20;58.40
11387;DHT22;5748;53.102;8.456;2023-05-07T02:10:21;14.30;58.40
11387;DHT22;5748;53.102;8.456;2023-05-07T02:12:52;14.20;57.80
11387;DHT22;5748;53.102;8.456;2023-05-07T02:15:20;15.60;60.50
11387;DHT22;5748;53.102;8.456;2023-05-07T02:18:02;14.20;58.40
11387;DHT22;5748;53.102;8.456;2023-05-07T02:20:29;14.20;58.80
11387;DHT22;5748;53.102;8.456;2023-05-07T02:22:56;14.10;58.30
11387;DHT22;5748;53.102;8.456;2023-05-07T02:25:23;14.20;58.60
11387;DHT22;5748;53.102;8.456;2023-05-07T02:27:52;14.20;58.00
11387;DHT22;5748;53.102;8.456;2023-05-07T02:30:19;14.30;58.50
11387;DHT22;5748;53.102;8.456;2023-05-07T02:32:53;14.10;58.90
11387;DHT22;5748;53.102;8.456;2023-05-07T02:35:20;14.60;59.00
11387;DHT22;5748;53.102;8.456;2023-05-07T02:37:47;14.10;58.70
11387;DHT22;5748;53.102;8.456;2023-05-07T02:40:14;14.10;58.90
11387;DHT22;5748;53.102;8.456;2023-05-07T02:42:41;14.10;58.40
11387;DHT22;5748;53.102;8.456;2023-05-07T02:45:10;14.00;58.60
11387;DHT22;5748;53.102;8.456;2023-05-07T02:47:37;14.60;60.40
11387;DHT22;5748;53.102;8.456;2023-05-07T02:50:20;15.80;60.60
11387;DHT22;5748;53.102;8.456;2023-05-07T02:52:47;14.00;59.40
11387;DHT22;5748;53.102;8.456;2023-05-07T02:55:15;14.00;58.90
11387;DHT22;5748;53.102;8.456;2023-05-07T02:57:42;14.00;59.10
11387;DHT22;5748;53.102;8.456;2023-05-07T03:00:15;14.10;58.80
11387;DHT22;5748;53.102;8.456;2023-05-07T03:02:44;14.00;59.00
11387;DHT22;5748;53.102;8.456;2023-05-07T03:05:11;14.00;58.30
11387;DHT22;5748;53.102;8.456;2023-05-07T03:07:40;14.00;58.40
11387;DHT22;5748;53.102;8.456;2023-05-07T03:10:10;14.00;58.20
11387;DHT22;5748;53.102;8.456;2023-05-07T03:12:38;14.10;58.50
11387;DHT22;5748;53.102;8.456;2023-05-07T03:15:06;14.10;58.50
11387;DHT22;5748;53.102;8.456;2023-05-07T03:17:37;14.10;58.70
11387;DHT22;5748;53.102;8.456;2023-05-07T03:20:07;14.10;58.90
11387;DHT22;5748;53.102;8.456;2023-05-07T03:22:35;14.50;59.40
11387;DHT22;5748;53.102;8.456;2023-05-07T03:25:02;14.00;59.40
11387;DHT22;5748;53.102;8.456;2023-05-07T03:27:29;14.00;59.70
11387;DHT22;5748;53.102;8.456;2023-05-07T03:29:56;14.00;58.70
11387;DHT22;5748;53.102;8.456;2023-05-07T03:32:24;14.00;59.10
11387;DHT22;5748;53.102;8.456;2023-05-07T03:34:52;14.00;59.20
11387;DHT22;5748;53.102;8.456;2023-05-07T03:37:19;13.90;59.10
11387;DHT22;5748;53.102;8.456;2023-05-07T03:39:47;13.80;58.70
11387;DHT22;5748;53.102;8.456;2023-05-07T03:42:14;13.80;58.50
11387;DHT22;5748;53.102;8.456;2023-05-07T03:44:42;13.90;58.70
11387;DHT22;5748;53.102;8.456;2023-05-07T03:47:09;13.80;58.90
11387;DHT22;5748;53.102;8.456;2023-05-07T03:49:36;14.30;59.20
11387;DHT22;5748;53.102;8.456;2023-05-07T03:52:05;14.30;59.40
11387;DHT22;5748;53.102;8.456;2023-05-07T03:57:03;13.80;59.20
11387;DHT22;5748;53.102;8.456;2023-05-07T03:59:30;13.70;59.40
11387;DHT22;5748;53.102;8.456;2023-05-07T04:01:57;13.70;59.00
11387;DHT22;5748;53.102;8.456;2023-05-07T04:04:24;13.70;58.70
11387;DHT22;5748;53.102;8.456;2023-05-07T04:06:51;13.70;59.00
11387;DHT22;5748;53.102;8.456;2023-05-07T04:09:20;13.80;58.70
11387;DHT22;5748;53.102;8.456;2023-05-07T04:12:01;13.80;59.20
11387;DHT22;5748;53.102;8.456;2023-05-07T04:14:28;13.80;59.50
11387;DHT22;5748;53.102;8.456;2023-05-07T04:16:57;13.80;59.10
11387;DHT22;5748;53.102;8.456;2023-05-07T04:19:24;13.80;59.00
11387;DHT22;5748;53.102;8.456;2023-05-07T04:22:01;13.80;59.50
11387;DHT22;5748;53.102;8.456;2023-05-07T04:24:32;13.80;59.50
11387;DHT22;5748;53.102;8.456;2023-05-07T04:26:59;13.80;59.70
11387;DHT22;5748;53.102;8.456;2023-05-07T04:29:27;13.80;59.50
11387;DHT22;5748;53.102;8.456;2023-05-07T04:31:54;13.80;59.00
11387;DHT22;5748;53.102;8.456;2023-05-07T04:34:22;13.70;59.20
11387;DHT22;5748;53.102;8.456;2023-05-07T04:36:49;14.00;59.50
11387;DHT22;5748;53.102;8.456;2023-05-07T04:39:16;13.80;59.80
11387;DHT22;5748;53.102;8.456;2023-05-07T04:41:44;13.80;59.80
11387;DHT22;5748;53.102;8.456;2023-05-07T04:44:11;13.80;59.30
11387;DHT22;5748;53.102;8.456;2023-05-07T04:46:38;13.80;59.30
11387;DHT22;5748;53.102;8.456;2023-05-07T04:49:05;13.80;59.50
11387;DHT22;5748;53.102;8.456;2023-05-07T04:51:32;13.80;60.00
11387;DHT22;5748;53.102;8.456;2023-05-07T04:53:59;14.80;61.80
11387;DHT22;5748;53.102;8.456;2023-05-07T04:56:35;14.00;60.00
11387;DHT22;5748;53.102;8.456;2023-05-07T04:59:04;13.80;60.30
11387;DHT22;5748;53.102;8.456;2023-05-07T05:01:31;13.80;60.00
11387;DHT22;5748;53.102;8.456;2023-05-07T05:04:00;13.80;60.00
11387;DHT22;5748;53.102;8.456;2023-05-07T05:06:47;13.80;60.10
11387;DHT22;5748;53.102;8.456;2023-05-07T05:09:14;13.80;61.20
11387;DHT22;5748;53.102;8.456;2023-05-07T05:11:42;13.80;60.10
11387;DHT22;5748;53.102;8.456;2023-05-07T05:14:13;13.90;59.90
11387;DHT22;5748;53.102;8.456;2023-05-07T05:16:43;12.30;59.00
11387;DHT22;5748;53.102;8.456;2023-05-07T05:19:11;13.60;59.60
11387;DHT22;5748;53.102;8.456;2023-05-07T05:24:06;13.30;59.20
11387;DHT22;5748;53.102;8.456;2023-05-07T05:26:33;13.90;59.90
11387;DHT22;5748;53.102;8.456;2023-05-07T05:29:00;15.90;62.90
11387;DHT22;5748;53.102;8.456;2023-05-07T05:31:29;14.50;60.60
11387;DHT22;5748;53.102;8.456;2023-05-07T05:33:56;16.30;62.10
11387;DHT22;5748;53.102;8.456;2023-05-07T05:36:23;14.00;60.00
11387;DHT22;5748;53.102;8.456;2023-05-07T05:38:51;16.30;62.30
11387;DHT22;5748;53.102;8.456;2023-05-07T05:41:18;14.50;59.90
11387;DHT22;5748;53.102;8.456;2023-05-07T05:43:46;14.10;59.60
11387;DHT22;5748;53.102;8.456;2023-05-07T05:46:14;14.10;59.70
11387;DHT22;5748;53.102;8.456;2023-05-07T05:48:43;14.70;60.40
11387;DHT22;5748;53.102;8.456;2023-05-07T05:51:11;14.10;59.60
11387;DHT22;5748;53.102;8.456;2023-05-07T05:53:40;14.20;59.70
11387;DHT22;5748;53.102;8.456;2023-05-07T05:56:13;14.20;60.80
11387;DHT22;5748;53.102;8.456;2023-05-07T05:58:40;16.10;62.80
11387;DHT22;5748;53.102;8.456;2023-05-07T06:03:38;14.10;60.20
11387;DHT22;5748;53.102;8.456;2023-05-07T06:06:07;16.70;63.20
11387;DHT22;5748;53.102;8.456;2023-05-07T06:08:37;14.60;61.50
11387;DHT22;5748;53.102;8.456;2023-05-07T06:11:04;15.40;62.50
11387;DHT22;5748;53.102;8.456;2023-05-07T06:13:35;14.40;60.80
11387;DHT22;5748;53.102;8.456;2023-05-07T06:16:03;16.10;63.20
11387;DHT22;5748;53.102;8.456;2023-05-07T06:18:31;14.10;60.00
11387;DHT22;5748;53.102;8.456;2023-05-07T06:20:58;14.20;60.00
11387;DHT22;5748;53.102;8.456;2023-05-07T06:23:27;14.20;60.10
11387;DHT22;5748;53.102;8.456;2023-05-07T06:25:54;14.30;60.00
11387;DHT22;5748;53.102;8.456;2023-05-07T06:28:21;14.70;60.10
11387;DHT22;5748;53.102;8.456;2023-05-07T06:30:48;14.20;60.00
11387;DHT22;5748;53.102;8.456;2023-05-07T06:33:16;14.20;60.00
11387;DHT22;5748;53.102;8.456;2023-05-07T06:35:43;14.20;60.30
11387;DHT22;5748;53.102;8.456;2023-05-07T06:38:10;15.40;61.10
11387;DHT22;5748;53.102;8.456;2023-05-07T06:40:49;14.30;59.40
11387;DHT22;5748;53.102;8.456;2023-05-07T06:43:43;14.70;62.60
11387;DHT22;5748;53.102;8.456;2023-05-07T06:46:12;14.30;60.30
11387;DHT22;5748;53.102;8.456;2023-05-07T06:54:41;13.90;61.50
11387;DHT22;5748;53.102;8.456;2023-05-07T06:57:17;15.80;62.80
11387;DHT22;5748;53.102;8.456;2023-05-07T07:00:01;14.40;59.40
11387;DHT22;5748;53.102;8.456;2023-05-07T07:02:53;14.50;59.20
11387;DHT22;5748;53.102;8.456;2023-05-07T07:05:32;14.50;60.10
11387;DHT22;5748;53.102;8.456;2023-05-07T07:07:59;14.50;59.90
11387;DHT22;5748;53.102;8.456;2023-05-07T07:10:26;14.50;59.60
11387;DHT22;5748;53.102;8.456;2023-05-07T07:12:55;14.50;59.60
11387;DHT22;5748;53.102;8.456;2023-05-07T07:15:23;14.50;59.70
11387;DHT22;5748;53.102;8.456;2023-05-07T07:17:51;14.60;59.90
11387;DHT22;5748;53.102;8.456;2023-05-07T07:20:18;14.60;59.70
11387;DHT22;5748;53.102;8.456;2023-05-07T07:22:51;14.60;59.80
11387;DHT22;5748;53.102;8.456;2023-05-07T07:25:18;14.60;59.70
11387;DHT22;5748;53.102;8.456;2023-05-07T07:27:52;14.60;59.70
11387;DHT22;5748;53.102;8.456;2023-05-07T07:30:23;14.80;59.90
11387;DHT22;5748;53.102;8.456;2023-05-07T07:32:52;13.00;58.30
11387;DHT22;5748;53.102;8.456;2023-05-07T07:35:24;14.80;59.60
11387;DHT22;5748;53.102;8.456;2023-05-07T07:37:52;14.80;59.80
11387;DHT22;5748;53.102;8.456;2023-05-07T07:40:19;14.80;59.70
11387;DHT22;5748;53.102;8.456;2023-05-07T07:42:46;14.90;59.70
11387;DHT22;5748;53.102;8.456;2023-05-07T07:45:13;14.90;59.60
11387;DHT22;5748;53.102;8.456;2023-05-07T07:47:41;14.90;59.40
11387;DHT22;5748;53.102;8.456;2023-05-07T07:50:11;15.10;59.80
11387;DHT22;5748;53.102;8.456;2023-05-07T07:52:39;15.00;59.70
11387;DHT22;5748;53.102;8.456;2023-05-07T07:55:23;15.00;60.00
11387;DHT22;5748;53.102;8.456;2023-05-07T07:57:51;15.10;59.50
11387;DHT22;5748;53.102;8.456;2023-05-07T08:00:19;15.10;59.80
11387;DHT22;5748;53.102;8.456;2023-05-07T08:02:49;15.20;59.50
11387;DHT22;5748;53.102;8.456;2023-05-07T08:05:21;15.20;59.10
11387;DHT22;5748;53.102;8.456;2023-05-07T08:07:53;15.30;59.20
11387;DHT22;5748;53.102;8.456;2023-05-07T08:10:21;15.40;59.40
11387;DHT22;5748;53.102;8.456;2023-05-07T08:12:48;15.40;59.30
11387;DHT22;5748;53.102;8.456;2023-05-07T08:15:18;16.00;60.80
11387;DHT22;5748;53.102;8.456;2023-05-07T08:17:59;15.80;60.60
11387;DHT22;5748;53.102;8.456;2023-05-07T08:20:38;17.60;62.30
11387;DHT22;5748;53.102;8.456;2023-05-07T08:23:14;15.70;59.30
11387;DHT22;5748;53.102;8.456;2023-05-07T08:25:51;15.80;58.40
11387;DHT22;5748;53.102;8.456;2023-05-07T08:28:20;15.90;58.30
11387;DHT22;5748;53.102;8.456;2023-05-07T08:30:49;16.00;60.00
11387;DHT22;5748;53.102;8.456;2023-05-07T08:33:18;16.10;59.90
11387;DHT22;5748;53.102;8.456;2023-05-07T08:35:47;16.00;59.10
11387;DHT22;5748;53.102;8.456;2023-05-07T08:40:43;16.10;57.70
11387;DHT22;5748;53.102;8.456;2023-05-07T08:43:14;18.40;60.10
11387;DHT22;5748;53.102;8.456;2023-05-07T08:45:45;16.20;58.20
11387;DHT22;5748;53.102;8.456;2023-05-07T08:48:15;16.10;58.10
11387;DHT22;5748;53.102;8.456;2023-05-07T08:50:46;16.10;58.30
11387;DHT22;5748;53.102;8.456;2023-05-07T08:53:13;16.20;58.80
11387;DHT22;5748;53.102;8.456;2023-05-07T08:58:10;16.20;57.60
11387;DHT22;5748;53.102;8.456;2023-05-07T09:00:46;16.30;58.20
11387;DHT22;5748;53.102;8.456;2023-05-07T09:03:14;16.30;57.90
11387;DHT22;5748;53.102;8.456;2023-05-07T09:05:41;16.30;58.00
11387;DHT22;5748;53.102;8.456;2023-05-07T09:08:14;16.40;58.10
11387;DHT22;5748;53.102;8.456;2023-05-07T09:10:42;16.40;57.90
11387;DHT22;5748;53.102;8.456;2023-05-07T09:13:11;16.50;57.80
11387;DHT22;5748;53.102;8.456;2023-05-07T09:15:41;16.50;58.00
11387;DHT22;5748;53.102;8.456;2023-05-07T09:18:10;16.60;57.80
11387;DHT22;5748;53.102;8.456;2023-05-07T09:20:48;16.60;58.00
11387;DHT22;5748;53.102;8.456;2023-05-07T09:23:27;16.90;57.60
11387;DHT22;5748;53.102;8.456;2023-05-07T09:26:01;16.70;57.00
11387;DHT22;5748;53.102;8.456;2023-05-07T09:28:30;16.80;57.20
11387;DHT22;5748;53.102;8.456;2023-05-07T09:31:07;16.90;57.20
11387;DHT22;5748;53.102;8.456;2023-05-07T09:33:38;15.20;55.90
11387;DHT22;5748;53.102;8.456;2023-05-07T09:36:11;17.70;57.80
11387;DHT22;5748;53.102;8.456;2023-05-07T09:39:10;17.30;58.00
11387;DHT22;5748;53.102;8.456;2023-05-07T09:41:51;17.00;56.70
11387;DHT22;5748;53.102;8.456;2023-05-07T09:44:31;18.00;57.50
11387;DHT22;5748;53.102;8.456;2023-05-07T09:47:08;17.30;58.20
11387;DHT22;5748;53.102;8.456;2023-05-07T09:52:58;17.20;56.70
11387;DHT22;5748;53.102;8.456;2023-05-07T09:55:43;17.30;57.30
11387;DHT22;5748;53.102;8.456;2023-05-07T09:58:12;17.30;57.30
11387;DHT22;5748;53.102;8.456;2023-05-07T10:00:50;17.40;58.00
11387;DHT22;5748;53.102;8.456;2023-05-07T10:03:20;17.70;56.80
11387;DHT22;5748;53.102;8.456;2023-05-07T10:05:49;17.80;57.70
11387;DHT22;5748;53.102;8.456;2023-05-07T10:08:17;18.00;57.30
11387;DHT22;5748;53.102;8.456;2023-05-07T10:10:53;18.30;58.40
11387;DHT22;5748;53.102;8.456;2023-05-07T10:13:21;18.60;57.90
11387;DHT22;5748;53.102;8.456;2023-05-07T10:15:57;19.00;58.60
11387;DHT22;5748;53.102;8.456;2023-05-07T10:18:24;19.30;57.60
11387;DHT22;5748;53.102;8.456;2023-05-07T10:21:11;19.70;57.80
11387;DHT22;5748;53.102;8.456;2023-05-07T10:23:50;20.00;55.80
11387;DHT22;5748;53.102;8.456;2023-05-07T10:26:22;20.40;56.70
11387;DHT22;5748;53.102;8.456;2023-05-07T10:29:11;20.70;57.00
11387;DHT22;5748;53.102;8.456;2023-05-07T10:31:58;21.10;55.70
11387;DHT22;5748;53.102;8.456;2023-05-07T10:34:29;21.50;54.40
11387;DHT22;5748;53.102;8.456;2023-05-07T10:37:29;21.70;55.40
11387;DHT22;5748;53.102;8.456;2023-05-07T10:40:07;21.90;51.40
11387;DHT22;5748;53.102;8.456;2023-05-07T10:42:56;21.90;52.70
11387;DHT22;5748;53.102;8.456;2023-05-07T10:45:31;21.90;52.00
11387;DHT22;5748;53.102;8.456;2023-05-07T10:48:10;21.80;52.40
11387;DHT22;5748;53.102;8.456;2023-05-07T10:50:42;21.70;51.70
11387;DHT22;5748;53.102;8.456;2023-05-07T10:53:24;21.50;52.90
11387;DHT22;5748;53.102;8.456;2023-05-07T10:59:37;21.20;51.20
11387;DHT22;5748;53.102;8.456;2023-05-07T11:02:08;21.10;51.60
11387;DHT22;5748;53.102;8.456;2023-05-07T11:04:37;21.00;52.60
11387;DHT22;5748;53.102;8.456;2023-05-07T11:07:30;20.90;52.90
11387;DHT22;5748;53.102;8.456;2023-05-07T11:10:03;20.80;51.60
11387;DHT22;5748;53.102;8.456;2023-05-07T11:12:51;20.80;52.60
11387;DHT22;5748;53.102;8.456;2023-05-07T11:15:45;20.70;52.00
11387;DHT22;5748;53.102;8.456;2023-05-07T11:18:17;20.60;52.00
11387;DHT22;5748;53.102;8.456;2023-05-07T11:20:59;20.60;53.50
11387;DHT22;5748;53.102;8.456;2023-05-07T11:26:50;20.50;52.10
11387;DHT22;5748;53.102;8.456;2023-05-07T11:29:24;20.60;51.60
11387;DHT22;5748;53.102;8.456;2023-05-07T11:32:23;20.50;52.40
11387;DHT22;5748;53.102;8.456;2023-05-07T11:35:03;20.40;52.30
11387;DHT22;5748;53.102;8.456;2023-05-07T11:37:49;20.40;51.90
11387;DHT22;5748;53.102;8.456;2023-05-07T11:40:17;20.20;51.90
11387;DHT22;5748;53.102;8.456;2023-05-07T11:43:13;20.20;52.10
11387;DHT22;5748;53.102;8.456;2023-05-07T11:46:16;20.10;52.10
11387;DHT22;5748;53.102;8.456;2023-05-07T11:49:06;20.40;52.50
11387;DHT22;5748;53.102;8.456;2023-05-07T11:51:48;17.20;50.50
11387;DHT22;5748;53.102;8.456;2023-05-07T11:54:21;20.00;53.30
11387;DHT22;5748;53.102;8.456;2023-05-07T11:57:39;19.90;52.70
11387;DHT22;5748;53.102;8.456;2023-05-07T12:00:21;19.10;52.80
11387;DHT22;5748;53.102;8.456;2023-05-07T12:03:18;20.30;54.40
11387;DHT22;5748;53.102;8.456;2023-05-07T12:05:47;20.00;54.10
11387;DHT22;5748;53.102;8.456;2023-05-07T12:08:24;20.10;53.40
11387;DHT22;5748;53.102;8.456;2023-05-07T12:11:00;20.10;52.80
11387;DHT22;5748;53.102;8.456;2023-05-07T12:13:38;20.20;53.20
11387;DHT22;5748;53.102;8.456;2023-05-07T12:16:06;20.20;52.20
11387;DHT22;5748;53.102;8.456;2023-05-07T12:18:35;20.20;53.40
11387;DHT22;5748;53.102;8.456;2023-05-07T12:21:04;20.30;53.90
11387;DHT22;5748;53.102;8.456;2023-05-07T12:23:38;20.40;53.50
11387;DHT22;5748;53.102;8.456;2023-05-07T12:26:06;20.60;53.40
11387;DHT22;5748;53.102;8.456;2023-05-07T12:28:36;20.70;52.80
11387;DHT22;5748;53.102;8.456;2023-05-07T12:31:05;20.80;53.10
11387;DHT22;5748;53.102;8.456;2023-05-07T12:33:33;21.00;54.00
11387;DHT22;5748;53.102;8.456;2023-05-07T12:36:05;21.30;54.00
11387;DHT22;5748;53.102;8.456;2023-05-07T12:38:37;21.60;54.00
11387;DHT22;5748;53.102;8.456;2023-05-07T12:41:07;21.90;54.10
11387;DHT22;5748;53.102;8.456;2023-05-07T12:43:34;22.20;54.20
11387;DHT22;5748;53.102;8.456;2023-05-07T12:46:04;22.50;53.70
11387;DHT22;5748;53.102;8.456;2023-05-07T12:48:32;22.80;53.50
11387;DHT22;5748;53.102;8.456;2023-05-07T12:51:00;23.10;52.90
11387;DHT22;5748;53.102;8.456;2023-05-07T12:53:30;23.40;53.40
11387;DHT22;5748;53.102;8.456;2023-05-07T12:55:58;23.60;53.00
11387;DHT22;5748;53.102;8.456;2023-05-07T12:58:27;23.90;53.10
11387;DHT22;5748;53.102;8.456;2023-05-07T13:00:56;24.10;51.70
11387;DHT22;5748;53.102;8.456;2023-05-07T13:03:26;24.30;52.00
11387;DHT22;5748;53.102;8.456;2023-05-07T13:05:55;24.40;51.60
11387;DHT22;5748;53.102;8.456;2023-05-07T13:08:28;24.60;50.80
11387;DHT22;5748;53.102;8.456;2023-05-07T13:10:59;24.60;51.00
11387;DHT22;5748;53.102;8.456;2023-05-07T13:13:29;24.60;50.10
11387;DHT22;5748;53.102;8.456;2023-05-07T13:15:56;24.50;49.00
11387;DHT22;5748;53.102;8.456;2023-05-07T13:18:24;24.40;48.70
11387;DHT22;5748;53.102;8.456;2023-05-07T13:20:52;24.20;48.70
11387;DHT22;5748;53.102;8.456;2023-05-07T13:23:19;24.10;48.90
11387;DHT22;5748;53.102;8.456;2023-05-07T13:25:47;23.90;49.10
11387;DHT22;5748;53.102;8.456;2023-05-07T13:28:16;23.80;48.90
11387;DHT22;5748;53.102;8.456;2023-05-07T13:30:43;23.70;49.20
11387;DHT22;5748;53.102;8.456;2023-05-07T13:33:10;23.60;49.40
11387;DHT22;5748;53.102;8.456;2023-05-07T13:35:37;23.60;49.50
11387;DHT22;5748;53.102;8.456;2023-05-07T13:38:04;23.60;50.10
11387;DHT22;5748;53.102;8.456;2023-05-07T13:40:31;23.60;49.90
11387;DHT22;5748;53.102;8.456;2023-05-07T13:43:00;23.70;49.70
11387;DHT22;5748;53.102;8.456;2023-05-07T13:45:27;23.70;49.40
11387;DHT22;5748;53.102;8.456;2023-05-07T13:47:55;23.70;49.60
11387;DHT22;5748;53.102;8.456;2023-05-07T13:50:54;23.70;48.80
11387;DHT22;5748;53.102;8.456;2023-05-07T13:53:21;23.60;47.90
11387;DHT22;5748;53.102;8.456;2023-05-07T13:55:48;23.70;49.20
11387;DHT22;5748;53.102;8.456;2023-05-07T13:58:16;23.70;48.90
11387;DHT22;5748;53.102;8.456;2023-05-07T14:00:43;23.60;48.90
11387;DHT22;5748;53.102;8.456;2023-05-07T14:03:19;23.60;48.60
11387;DHT22;5748;53.102;8.456;2023-05-07T14:06:11;23.60;48.20
11387;DHT22;5748;53.102;8.456;2023-05-07T14:08:40;23.50;48.50
11387;DHT22;5748;53.102;8.456;2023-05-07T14:11:07;23.50;48.70
11387;DHT22;5748;53.102;8.456;2023-05-07T14:13:35;23.50;48.90
11387;DHT22;5748;53.102;8.456;2023-05-07T14:16:04;23.40;48.40
11387;DHT22;5748;53.102;8.456;2023-05-07T14:18:31;23.30;48.70
11387;DHT22;5748;53.102;8.456;2023-05-07T14:21:00;23.30;48.00
11387;DHT22;5748;53.102;8.456;2023-05-07T14:23:28;23.10;47.60
11387;DHT22;5748;53.102;8.456;2023-05-07T14:25:55;23.10;47.70
11387;DHT22;5748;53.102;8.456;2023-05-07T14:28:23;23.00;48.50
11387;DHT22;5748;53.102;8.456;2023-05-07T14:31:08;22.90;48.90
11387;DHT22;5748;53.102;8.456;2023-05-07T14:33:35;22.90;47.90
11387;DHT22;5748;53.102;8.456;2023-05-07T14:36:02;22.80;48.70
11387;DHT22;5748;53.102;8.456;2023-05-07T14:38:30;22.70;48.10
11387;DHT22;5748;53.102;8.456;2023-05-07T14:40:58;22.70;48.40
11387;DHT22;5748;53.102;8.456;2023-05-07T14:43:25;22.70;48.70
11387;DHT22;5748;53.102;8.456;2023-05-07T14:45:52;22.60;48.90
11387;DHT22;5748;53.102;8.456;2023-05-07T14:48:21;22.60;49.20
11387;DHT22;5748;53.102;8.456;2023-05-07T14:50:48;22.60;49.20
11387;DHT22;5748;53.102;8.456;2023-05-07T14:53:16;22.60;49.40
11387;DHT22;5748;53.102;8.456;2023-05-07T14:55:43;22.60;49.10
11387;DHT22;5748;53.102;8.456;2023-05-07T14:58:10;22.70;49.60
11387;DHT22;5748;53.102;8.456;2023-05-07T15:00:37;22.70;49.60
11387;DHT22;5748;53.102;8.456;2023-05-07T15:03:06;22.80;49.70
11387;DHT22;5748;53.102;8.456;2023-05-07T15:05:36;22.80;49.20
11387;DHT22;5748;53.102;8.456;2023-05-07T15:08:04;22.90;49.30
11387;DHT22;5748;53.102;8.456;2023-05-07T15:10:34;22.90;48.60
11387;DHT22;5748;53.102;8.456;2023-05-07T15:13:06;22.90;48.70
11387;DHT22;5748;53.102;8.456;2023-05-07T15:15:33;22.90;49.10
11387;DHT22;5748;53.102;8.456;2023-05-07T15:18:01;22.80;49.10
11387;DHT22;5748;53.102;8.456;2023-05-07T15:20:28;22.80;49.20
11387;DHT22;5748;53.102;8.456;2023-05-07T15:22:56;22.70;49.00
11387;DHT22;5748;53.102;8.456;2023-05-07T15:25:23;22.50;48.80
11387;DHT22;5748;53.102;8.456;2023-05-07T15:28:03;22.50;48.70
11387;DHT22;5748;53.102;8.456;2023-05-07T15:30:31;22.30;48.30
11387;DHT22;5748;53.102;8.456;2023-05-07T15:36:23;22.10;48.60
11387;DHT22;5748;53.102;8.456;2023-05-07T15:38:52;22.00;48.60
11387;DHT22;5748;53.102;8.456;2023-05-07T15:41:25;21.80;48.30
11387;DHT22;5748;53.102;8.456;2023-05-07T15:44:01;21.80;48.60
11387;DHT22;5748;53.102;8.456;2023-05-07T15:46:33;21.70;49.10
11387;DHT22;5748;53.102;8.456;2023-05-07T15:49:17;21.60;49.20
11387;DHT22;5748;53.102;8.456;2023-05-07T15:51:49;21.50;49.00
11387;DHT22;5748;53.102;8.456;2023-05-07T15:54:19;21.50;49.50
11387;DHT22;5748;53.102;8.456;2023-05-07T15:56:52;21.40;50.00
11387;DHT22;5748;53.102;8.456;2023-05-07T15:59:22;21.30;49.80
11387;DHT22;5748;53.102;8.456;2023-05-07T16:01:49;21.30;50.40
11387;DHT22;5748;53.102;8.456;2023-05-07T16:06:44;21.30;49.20
11387;DHT22;5748;53.102;8.456;2023-05-07T16:09:12;21.30;49.80
11387;DHT22;5748;53.102;8.456;2023-05-07T16:11:40;21.30;50.20
11387;DHT22;5748;53.102;8.456;2023-05-07T16:14:08;21.30;49.70
11387;DHT22;5748;53.102;8.456;2023-05-07T16:16:35;21.30;50.40
11387;DHT22;5748;53.102;8.456;2023-05-07T16:19:06;21.30;49.20
11387;DHT22;5748;53.102;8.456;2023-05-07T16:21:33;21.30;49.00
11387;DHT22;5748;53.102;8.456;2023-05-07T16:24:00;21.20;50.40
11387;DHT22;5748;53.102;8.456;2023-05-07T16:26:28;21.20;49.00
11387;DHT22;5748;53.102;8.456;2023-05-07T16:29:04;21.20;49.50
11387;DHT22;5748;53.102;8.456;2023-05-07T16:31:32;21.60;50.90
11387;DHT22;5748;53.102;8.456;2023-05-07T16:34:01;21.30;50.40
11387;DHT22;5748;53.102;8.456;2023-05-07T16:36:43;21.00;49.20
11387;DHT22;5748;53.102;8.456;2023-05-07T16:39:33;20.90;49.60
11387;DHT22;5748;53.102;8.456;2023-05-07T16:42:00;20.80;49.10
11387;DHT22;5748;53.102;8.456;2023-05-07T16:44:31;20.80;49.50